sensor_id;sensor_type;location;lat;lon;timestamp;temperature;humidity
13600;DHT22;6871;51.34740610;4.31323160;2023-04-24T00:00:46;16.00;88.10
13600;DHT22;6871;51.34740610;4.31323160;2023-04-24T00:03:17;16.00;88.10
13600;DHT22;6871;51.34740610;4.31323160;2023-04-24T00:09:31;15.90;88.10
13600;DHT22;6871;51.34740610;4.31323160;2023-04-24T00:24:11;15.90;88.20
13600;DHT22;6871;51.34740610;4.31323160;2023-04-24T00:33:15;15.90;88.10
13600;DHT22;6871;51.34740610;4.31323160;2023-04-24T00:42:43;15.90;88.00
13600;DHT22;6871;51.34740610;4.31323160;2023-04-24T00:45:39;15.80;87.90
13600;DHT22;6871;51.34740610;4.31323160;2023-04-24T00:52:08;15.80;87.90
13600;DHT22;6871;51.34740610;4.31323160;2023-04-24T00:55:19;15.80;87.80
13600;DHT22;6871;51.34740610;4.31323160;2023-04-24T01:04:36;15.80;87.70
13600;DHT22;6871;51.34740610;4.31323160;2023-04-24T01:07:26;15.80;87.70
13600;DHT22;6871;51.34740610;4.31323160;2023-04-24T01:10:29;15.80;87.60
13600;DHT22;6871;51.34740610;4.31323160;2023-04-24T01:13:26;15.80;87.60
13600;DHT22;6871;51.34740610;4.31323160;2023-04-24T01:16:20;15.80;87.50
13600;DHT22;6871;51.34740610;4.31323160;2023-04-24T01:24:26;15.80;87.40
13600;DHT22;6871;51.34740610;4.31323160;2023-04-24T01:26:56;15.90;87.50
13600;DHT22;6871;51.34740610;4.31323160;2023-04-24T01:32:29;15.80;87.30
13600;DHT22;6871;51.34740610;4.31323160;2023-04-24T01:34:58;15.80;87.30
13600;DHT22;6871;51.34740610;4.31323160;2023-04-24T01:37:27;15.80;87.30
13600;DHT22;6871;51.34740610;4.31323160;2023-04-24T01:39:56;15.80;87.30
13600;DHT22;6871;51.34740610;4.31323160;2023-04-24T01:45:46;15.80;87.20
13600;DHT22;6871;51.34740610;4.31323160;2023-04-24T01:58:05;15.80;87.10
13600;DHT22;6871;51.34740610;4.31323160;2023-04-24T02:00:36;15.80;87.10
13600;DHT22;6871;51.34740610;4.31323160;2023-04-24T02:03:06;15.80;87.30
13600;DHT22;6871;51.34740610;4.31323160;2023-04-24T02:05:35;15.80;87.10
13600;DHT22;6871;51.34740610;4.31323160;2023-04-24T02:08:05;15.80;87.00
13600;DHT22;6871;51.34740610;4.31323160;2023-04-24T02:10:36;15.80;87.00
13600;DHT22;6871;51.34740610;4.31323160;2023-04-24T02:13:31;15.80;86.90
13600;DHT22;6871;51.34740610;4.31323160;2023-04-24T02:16:00;15.80;86.90
13600;DHT22;6871;51.34740610;4.31323160;2023-04-24T02:21:37;15.80;86.80
13600;DHT22;6871;51.34740610;4.31323160;2023-04-24T02:24:08;15.80;86.70
13600;DHT22;6871;51.34740610;4.31323160;2023-04-24T02:26:51;15.80;86.70
13600;DHT22;6871;51.34740610;4.31323160;2023-04-24T02:29:21;15.80;86.70
13600;DHT22;6871;51.34740610;4.31323160;2023-04-24T02:31:51;15.80;86.70
13600;DHT22;6871;51.34740610;4.31323160;2023-04-24T02:34:21;15.80;86.70
13600;DHT22;6871;51.34740610;4.31323160;2023-04-24T02:37:15;15.80;86.70
13600;DHT22;6871;51.34740610;4.31323160;2023-04-24T02:39:46;15.70;86.70
13600;DHT22;6871;51.34740610;4.31323160;2023-04-24T02:42:19;15.80;86.70
13600;DHT22;6871;51.34740610;4.31323160;2023-04-24T02:44:50;15.80;86.70
13600;DHT22;6871;51.34740610;4.31323160;2023-04-24T02:47:20;15.80;86.70
13600;DHT22;6871;51.34740610;4.31323160;2023-04-24T02:49:49;15.80;86.70
13600;DHT22;6871;51.34740610;4.31323160;2023-04-24T02:52:19;15.70;86.70
13600;DHT22;6871;51.34740610;4.31323160;2023-04-24T02:54:49;15.70;86.70
13600;DHT22;6871;51.34740610;4.31323160;2023-04-24T02:57:18;15.70;86.80
13600;DHT22;6871;51.34740610;4.31323160;2023-04-24T02:59:51;15.70;86.70
13600;DHT22;6871;51.34740610;4.31323160;2023-04-24T03:02:21;15.80;86.80
13600;DHT22;6871;51.34740610;4.31323160;2023-04-24T03:04:50;15.70;86.70
13600;DHT22;6871;51.34740610;4.31323160;2023-04-24T03:07:19;15.70;86.70
13600;DHT22;6871;51.34740610;4.31323160;2023-04-24T03:09:49;15.70;86.80
13600;DHT22;6871;51.34740610;4.31323160;2023-04-24T03:12:18;15.70;86.80
13600;DHT22;6871;51.34740610;4.31323160;2023-04-24T03:14:49;15.70;86.80
13600;DHT22;6871;51.34740610;4.31323160;2023-04-24T03:17:18;15.70;86.80
13600;DHT22;6871;51.34740610;4.31323160;2023-04-24T03:19:48;15.70;86.90
13600;DHT22;6871;51.34740610;4.31323160;2023-04-24T03:22:18;15.70;86.90
13600;DHT22;6871;51.34740610;4.31323160;2023-04-24T03:24:48;15.70;86.90
13600;DHT22;6871;51.34740610;4.31323160;2023-04-24T03:27:18;15.70;86.90
13600;DHT22;6871;51.34740610;4.31323160;2023-04-24T03:29:47;15.70;86.90
13600;DHT22;6871;51.34740610;4.31323160;2023-04-24T03:32:19;15.70;86.90
13600;DHT22;6871;51.34740610;4.31323160;2023-04-24T03:34:48;15.70;86.90
13600;DHT22;6871;51.34740610;4.31323160;2023-04-24T03:37:17;15.70;87.10
13600;DHT22;6871;51.34740610;4.31323160;2023-04-24T03:39:47;15.70;86.90
13600;DHT22;6871;51.34740610;4.31323160;2023-04-24T03:42:17;15.70;86.90
13600;DHT22;6871;51.34740610;4.31323160;2023-04-24T03:45:13;15.70;86.90
13600;DHT22;6871;51.34740610;4.31323160;2023-04-24T03:47:49;15.70;86.90
13600;DHT22;6871;51.34740610;4.31323160;2023-04-24T03:53:14;15.70;86.90
13600;DHT22;6871;51.34740610;4.31323160;2023-04-24T03:56:24;15.70;86.80
13600;DHT22;6871;51.34740610;4.31323160;2023-04-24T04:05:15;15.60;86.70
13600;DHT22;6871;51.34740610;4.31323160;2023-04-24T04:14:08;15.60;86.80
13600;DHT22;6871;51.34740610;4.31323160;2023-04-24T04:16:56;15.60;86.90
13600;DHT22;6871;51.34740610;4.31323160;2023-04-24T04:19:42;15.60;86.90
13600;DHT22;6871;51.34740610;4.31323160;2023-04-24T04:22:35;15.60;86.80
13600;DHT22;6871;51.34740610;4.31323160;2023-04-24T04:25:07;15.50;86.70
13600;DHT22;6871;51.34740610;4.31323160;2023-04-24T04:34:08;15.60;86.70
13600;DHT22;6871;51.34740610;4.31323160;2023-04-24T04:36:53;15.50;86.60
13600;DHT22;6871;51.34740610;4.31323160;2023-04-24T04:50:29;15.50;86.60
13600;DHT22;6871;51.34740610;4.31323160;2023-04-24T04:53:23;15.50;86.60
13600;DHT22;6871;51.34740610;4.31323160;2023-04-24T04:59:03;15.50;86.50
13600;DHT22;6871;51.34740610;4.31323160;2023-04-24T05:01:49;15.50;86.40
13600;DHT22;6871;51.34740610;4.31323160;2023-04-24T05:04:45;15.50;86.30
13600;DHT22;6871;51.34740610;4.31323160;2023-04-24T05:07:25;15.50;86.30
13600;DHT22;6871;51.34740610;4.31323160;2023-04-24T05:10:34;15.50;86.20
13600;DHT22;6871;51.34740610;4.31323160;2023-04-24T05:16:57;15.50;85.90
13600;DHT22;6871;51.34740610;4.31323160;2023-04-24T05:19:33;15.50;85.90
13600;DHT22;6871;51.34740610;4.31323160;2023-04-24T05:22:27;15.40;85.90
13600;DHT22;6871;51.34740610;4.31323160;2023-04-24T05:25:11;15.40;85.90
13600;DHT22;6871;51.34740610;4.31323160;2023-04-24T05:52:55;15.40;85.50
13600;DHT22;6871;51.34740610;4.31323160;2023-04-24T05:58:54;15.40;85.50
13600;DHT22;6871;51.34740610;4.31323160;2023-04-24T06:04:37;15.40;85.50
13600;DHT22;6871;51.34740610;4.31323160;2023-04-24T06:13:44;15.30;86.10
13600;DHT22;6871;51.34740610;4.31323160;2023-04-24T06:20:17;15.30;86.20
13600;DHT22;6871;51.34740610;4.31323160;2023-04-24T06:23:09;15.30;86.20
13600;DHT22;6871;51.34740610;4.31323160;2023-04-24T06:28:32;15.30;85.90
13600;DHT22;6871;51.34740610;4.31323160;2023-04-24T06:31:33;15.30;85.80
13600;DHT22;6871;51.34740610;4.31323160;2023-04-24T06:34:05;15.40;85.80
13600;DHT22;6871;51.34740610;4.31323160;2023-04-24T06:59:45;15.40;86.40
13600;DHT22;6871;51.34740610;4.31323160;2023-04-24T07:02:16;15.30;85.80
13600;DHT22;6871;51.34740610;4.31323160;2023-04-24T07:04:45;15.30;85.80
13600;DHT22;6871;51.34740610;4.31323160;2023-04-24T07:07:15;15.30;85.80
13600;DHT22;6871;51.34740610;4.31323160;2023-04-24T07:09:44;15.30;85.80
13600;DHT22;6871;51.34740610;4.31323160;2023-04-24T07:12:14;15.30;85.80
13600;DHT22;6871;51.34740610;4.31323160;2023-04-24T07:14:44;15.30;85.80
13600;DHT22;6871;51.34740610;4.31323160;2023-04-24T07:17:32;15.30;85.70
13600;DHT22;6871;51.34740610;4.31323160;2023-04-24T07:20:01;15.30;85.50
13600;DHT22;6871;51.34740610;4.31323160;2023-04-24T07:22:30;15.30;85.50
13600;DHT22;6871;51.34740610;4.31323160;2023-04-24T07:24:59;15.30;85.50
13600;DHT22;6871;51.34740610;4.31323160;2023-04-24T07:27:28;15.30;85.50
13600;DHT22;6871;51.34740610;4.31323160;2023-04-24T07:29:57;15.30;86.20
13600;DHT22;6871;51.34740610;4.31323160;2023-04-24T07:32:27;15.30;85.40
13600;DHT22;6871;51.34740610;4.31323160;2023-04-24T07:35:02;15.40;85.40
13600;DHT22;6871;51.34740610;4.31323160;2023-04-24T07:50:38;15.00;87.70
13600;DHT22;6871;51.34740610;4.31323160;2023-04-24T08:06:12;15.50;90.70
13600;DHT22;6871;51.34740610;4.31323160;2023-04-24T08:09:03;15.50;90.40
13600;DHT22;6871;51.34740610;4.31323160;2023-04-24T08:11:41;15.50;90.40
13600;DHT22;6871;51.34740610;4.31323160;2023-04-24T09:26:24;15.40;86.50
13600;DHT22;6871;51.34740610;4.31323160;2023-04-24T09:31:56;15.40;86.20
13600;DHT22;6871;51.34740610;4.31323160;2023-04-24T09:35:11;15.50;86.00
13600;DHT22;6871;51.34740610;4.31323160;2023-04-24T10:51:51;15.60;83.70
13600;DHT22;6871;51.34740610;4.31323160;2023-04-24T10:58:05;15.60;83.60
13600;DHT22;6871;51.34740610;4.31323160;2023-04-24T11:01:13;15.60;83.70
